Overview Statistics Trail Chart Weather Telemetry Raw packets
 

This is the latest recevied weather packets stored in our database for station/object OM6ACB-6. If no packets are shown the sender has not sent any weather packets the latest 10 day(s).

<< 30 31 32 33 34 35 36 >>
Time Temp. Humidity Pressure Rain* Wind** Luminosity Snow
1788205373 17.22° C 24% 1019.4 hPa 0 mm - - -
1788204773 16.67° C 24% 1019.4 hPa 0 mm - - -
1788204172 17.22° C 24% 1019.4 hPa 0 mm - - -
1788203572 17.22° C 24% 1019.4 hPa 0 mm - - -
1788202972 17.22° C 24% 1019.3 hPa 0 mm - - -
1788202372 18.89° C 23% 1019.6 hPa 0 mm - - -
1788201771 19.44° C 23% 1019.5 hPa 0 mm - - -
1788201171 18.89° C 23% 1019.3 hPa 0 mm - - -
1788200571 19.44° C 23% 1019.4 hPa 0 mm - - -
1788199970 20.56° C 22% 1019.5 hPa 0 mm - - -
1788199370 20.56° C 22% 1019.4 hPa 0 mm - - -
1788198770 20.56° C 22% 1019.3 hPa 0 mm - - -
1788198170 21.11° C 22% 1019.3 hPa 0 mm - - -
1788197571 21.11° C 22% 1019.4 hPa 0 mm - - -
1788196970 21.67° C 22% 1019.4 hPa 0 mm - - -
1788196369 21.67° C 22% 1019.4 hPa 0 mm - - -
1788195768 21.67° C 22% 1019.3 hPa 0 mm - - -
1788195168 22.22° C 21% 1019.4 hPa 0 mm - - -
1788194568 22.78° C 21% 1019.4 hPa 0 mm - - -
1788193968 22.78° C 21% 1019.4 hPa 0 mm - - -
1788193367 23.33° C 21% 1019.3 hPa 0 mm - - -
1788192779 23.89° C 21% 1019.3 hPa 0 mm - - -
1788192167 23.33° C 21% 1019.2 hPa 0 mm - - -
1788191566 22.78° C 21% 1019.2 hPa 0 mm - - -
1788190966 23.33° C 21% 1019.1 hPa 0 mm - - -

* Rain latest hour (hover to see other rain measurements)
** Current wind speed in m/s (hover to see current wind gust speed)